sensor_id;sensor_type;location;lat;lon;timestamp;P1;durP1;ratioP1;P2;durP2;ratioP2
10705;SDS011;5404;42.656;23.336;2023-09-19T00:01:38;9.70;;;4.68;;
10705;SDS011;5404;42.656;23.336;2023-09-19T00:04:05;6.25;;;4.13;;
10705;SDS011;5404;42.656;23.336;2023-09-19T00:06:35;10.00;;;5.25;;
10705;SDS011;5404;42.656;23.336;2023-09-19T00:09:04;7.70;;;5.22;;
10705;SDS011;5404;42.656;23.336;2023-09-19T00:11:30;8.25;;;4.40;;
10705;SDS011;5404;42.656;23.336;2023-09-19T00:13:56;8.98;;;4.38;;
10705;SDS011;5404;42.656;23.336;2023-09-19T00:16:24;9.18;;;4.88;;
10705;SDS011;5404;42.656;23.336;2023-09-19T00:18:50;10.93;;;4.72;;
10705;SDS011;5404;42.656;23.336;2023-09-19T00:21:15;6.03;;;4.25;;
10705;SDS011;5404;42.656;23.336;2023-09-19T00:23:40;13.13;;;5.22;;
10705;SDS011;5404;42.656;23.336;2023-09-19T00:26:06;9.10;;;4.72;;
10705;SDS011;5404;42.656;23.336;2023-09-19T00:28:32;7.60;;;4.90;;
10705;SDS011;5404;42.656;23.336;2023-09-19T00:30:58;6.88;;;4.60;;
10705;SDS011;5404;42.656;23.336;2023-09-19T00:33:26;7.70;;;4.75;;
10705;SDS011;5404;42.656;23.336;2023-09-19T00:35:54;7.88;;;4.80;;
10705;SDS011;5404;42.656;23.336;2023-09-19T00:38:22;6.38;;;4.38;;
10705;SDS011;5404;42.656;23.336;2023-09-19T00:40:52;7.78;;;4.53;;
10705;SDS011;5404;42.656;23.336;2023-09-19T00:43:18;8.05;;;4.78;;
10705;SDS011;5404;42.656;23.336;2023-09-19T00:45:45;8.38;;;4.00;;
10705;SDS011;5404;42.656;23.336;2023-09-19T00:50:38;9.93;;;5.50;;
10705;SDS011;5404;42.656;23.336;2023-09-19T00:53:07;6.03;;;4.10;;
10705;SDS011;5404;42.656;23.336;2023-09-19T00:55:38;8.10;;;5.00;;
10705;SDS011;5404;42.656;23.336;2023-09-19T00:58:04;9.00;;;5.25;;
10705;SDS011;5404;42.656;23.336;2023-09-19T01:00:33;9.30;;;5.05;;
10705;SDS011;5404;42.656;23.336;2023-09-19T01:03:02;8.63;;;5.07;;
10705;SDS011;5404;42.656;23.336;2023-09-19T01:05:27;9.40;;;4.93;;
10705;SDS011;5404;42.656;23.336;2023-09-19T01:07:54;8.05;;;5.35;;
10705;SDS011;5404;42.656;23.336;2023-09-19T01:10:20;6.32;;;4.63;;
10705;SDS011;5404;42.656;23.336;2023-09-19T01:17:49;9.10;;;4.78;;
10705;SDS011;5404;42.656;23.336;2023-09-19T01:23:00;11.05;;;5.97;;
10705;SDS011;5404;42.656;23.336;2023-09-19T01:28:32;15.07;;;5.78;;
10705;SDS011;5404;42.656;23.336;2023-09-19T01:31:03;8.13;;;5.47;;
10705;SDS011;5404;42.656;23.336;2023-09-19T01:36:33;9.10;;;5.45;;
10705;SDS011;5404;42.656;23.336;2023-09-19T01:39:01;10.43;;;5.30;;
10705;SDS011;5404;42.656;23.336;2023-09-19T01:44:04;13.93;;;5.60;;
10705;SDS011;5404;42.656;23.336;2023-09-19T01:46:34;12.57;;;5.65;;
10705;SDS011;5404;42.656;23.336;2023-09-19T01:54:56;8.50;;;5.43;;
10705;SDS011;5404;42.656;23.336;2023-09-19T01:57:41;8.93;;;5.97;;
10705;SDS011;5404;42.656;23.336;2023-09-19T02:00:15;8.88;;;5.47;;
10705;SDS011;5404;42.656;23.336;2023-09-19T02:02:47;9.10;;;5.93;;
10705;SDS011;5404;42.656;23.336;2023-09-19T02:05:12;14.02;;;6.10;;
10705;SDS011;5404;42.656;23.336;2023-09-19T02:07:46;14.77;;;5.90;;
10705;SDS011;5404;42.656;23.336;2023-09-19T02:10:12;9.82;;;6.45;;
10705;SDS011;5404;42.656;23.336;2023-09-19T02:12:39;9.23;;;6.30;;
10705;SDS011;5404;42.656;23.336;2023-09-19T02:15:04;13.68;;;7.65;;
10705;SDS011;5404;42.656;23.336;2023-09-19T02:17:32;11.27;;;7.57;;
10705;SDS011;5404;42.656;23.336;2023-09-19T02:19:58;11.10;;;7.72;;
10705;SDS011;5404;42.656;23.336;2023-09-19T02:22:26;14.18;;;7.18;;
10705;SDS011;5404;42.656;23.336;2023-09-19T02:24:52;17.58;;;8.40;;
10705;SDS011;5404;42.656;23.336;2023-09-19T02:27:18;14.57;;;8.02;;
10705;SDS011;5404;42.656;23.336;2023-09-19T02:29:44;14.38;;;7.38;;
10705;SDS011;5404;42.656;23.336;2023-09-19T02:32:10;18.15;;;8.95;;
10705;SDS011;5404;42.656;23.336;2023-09-19T02:34:36;13.40;;;7.47;;
10705;SDS011;5404;42.656;23.336;2023-09-19T02:37:04;14.52;;;8.05;;
10705;SDS011;5404;42.656;23.336;2023-09-19T02:39:33;22.70;;;8.07;;
10705;SDS011;5404;42.656;23.336;2023-09-19T02:41:59;12.95;;;7.22;;
10705;SDS011;5404;42.656;23.336;2023-09-19T02:44:24;13.55;;;7.72;;
10705;SDS011;5404;42.656;23.336;2023-09-19T02:46:50;20.20;;;8.35;;
10705;SDS011;5404;42.656;23.336;2023-09-19T02:49:16;14.55;;;7.57;;
10705;SDS011;5404;42.656;23.336;2023-09-19T02:51:43;11.80;;;8.52;;
10705;SDS011;5404;42.656;23.336;2023-09-19T02:54:09;13.05;;;7.95;;
10705;SDS011;5404;42.656;23.336;2023-09-19T02:56:35;14.20;;;8.23;;
10705;SDS011;5404;42.656;23.336;2023-09-19T02:59:01;20.38;;;8.32;;
10705;SDS011;5404;42.656;23.336;2023-09-19T03:01:27;19.00;;;8.50;;
10705;SDS011;5404;42.656;23.336;2023-09-19T03:03:55;14.20;;;7.90;;
10705;SDS011;5404;42.656;23.336;2023-09-19T03:06:21;14.85;;;7.85;;
10705;SDS011;5404;42.656;23.336;2023-09-19T03:08:47;14.77;;;8.70;;
10705;SDS011;5404;42.656;23.336;2023-09-19T03:11:14;14.07;;;7.80;;
10705;SDS011;5404;42.656;23.336;2023-09-19T03:13:41;22.75;;;8.15;;
10705;SDS011;5404;42.656;23.336;2023-09-19T03:16:07;13.73;;;7.93;;
10705;SDS011;5404;42.656;23.336;2023-09-19T03:18:36;11.40;;;8.05;;
10705;SDS011;5404;42.656;23.336;2023-09-19T03:21:02;15.90;;;7.88;;
10705;SDS011;5404;42.656;23.336;2023-09-19T03:23:27;13.65;;;7.55;;
10705;SDS011;5404;42.656;23.336;2023-09-19T03:25:54;10.88;;;7.80;;
10705;SDS011;5404;42.656;23.336;2023-09-19T03:28:20;16.23;;;7.75;;
10705;SDS011;5404;42.656;23.336;2023-09-19T03:30:56;16.00;;;7.65;;
10705;SDS011;5404;42.656;23.336;2023-09-19T03:33:23;13.02;;;8.02;;
10705;SDS011;5404;42.656;23.336;2023-09-19T03:35:52;11.73;;;8.55;;
10705;SDS011;5404;42.656;23.336;2023-09-19T03:38:18;21.70;;;8.88;;
10705;SDS011;5404;42.656;23.336;2023-09-19T03:40:44;16.10;;;7.53;;
10705;SDS011;5404;42.656;23.336;2023-09-19T03:43:10;19.15;;;9.18;;
10705;SDS011;5404;42.656;23.336;2023-09-19T03:45:35;18.92;;;8.50;;
10705;SDS011;5404;42.656;23.336;2023-09-19T03:48:00;15.95;;;7.82;;
10705;SDS011;5404;42.656;23.336;2023-09-19T03:50:26;13.38;;;7.60;;
10705;SDS011;5404;42.656;23.336;2023-09-19T03:52:55;13.10;;;7.18;;
10705;SDS011;5404;42.656;23.336;2023-09-19T03:55:22;15.95;;;8.15;;
10705;SDS011;5404;42.656;23.336;2023-09-19T03:57:50;15.25;;;8.15;;
10705;SDS011;5404;42.656;23.336;2023-09-19T04:00:16;17.95;;;9.50;;
10705;SDS011;5404;42.656;23.336;2023-09-19T04:02:46;15.25;;;8.48;;
10705;SDS011;5404;42.656;23.336;2023-09-19T04:05:11;19.80;;;8.27;;
10705;SDS011;5404;42.656;23.336;2023-09-19T04:07:37;14.40;;;8.80;;
10705;SDS011;5404;42.656;23.336;2023-09-19T04:10:02;18.15;;;8.25;;
10705;SDS011;5404;42.656;23.336;2023-09-19T04:12:28;16.98;;;8.50;;
10705;SDS011;5404;42.656;23.336;2023-09-19T04:14:53;18.95;;;8.95;;
10705;SDS011;5404;42.656;23.336;2023-09-19T04:17:19;12.43;;;8.63;;
10705;SDS011;5404;42.656;23.336;2023-09-19T04:19:45;14.05;;;9.10;;
10705;SDS011;5404;42.656;23.336;2023-09-19T04:22:11;14.07;;;8.98;;
10705;SDS011;5404;42.656;23.336;2023-09-19T04:24:37;21.13;;;9.10;;
10705;SDS011;5404;42.656;23.336;2023-09-19T04:27:04;21.38;;;9.00;;
10705;SDS011;5404;42.656;23.336;2023-09-19T04:29:30;17.77;;;8.90;;
10705;SDS011;5404;42.656;23.336;2023-09-19T04:31:55;23.65;;;10.68;;
10705;SDS011;5404;42.656;23.336;2023-09-19T04:34:24;26.10;;;10.20;;
10705;SDS011;5404;42.656;23.336;2023-09-19T04:36:49;38.22;;;10.20;;
10705;SDS011;5404;42.656;23.336;2023-09-19T04:39:15;17.98;;;10.13;;
10705;SDS011;5404;42.656;23.336;2023-09-19T04:41:41;16.60;;;9.43;;
10705;SDS011;5404;42.656;23.336;2023-09-19T04:44:07;14.60;;;9.20;;
10705;SDS011;5404;42.656;23.336;2023-09-19T04:46:33;22.30;;;8.82;;
10705;SDS011;5404;42.656;23.336;2023-09-19T04:48:59;19.17;;;10.13;;
10705;SDS011;5404;42.656;23.336;2023-09-19T04:51:25;15.80;;;9.25;;
10705;SDS011;5404;42.656;23.336;2023-09-19T04:53:54;15.70;;;9.15;;
10705;SDS011;5404;42.656;23.336;2023-09-19T04:56:19;25.08;;;8.98;;
10705;SDS011;5404;42.656;23.336;2023-09-19T04:58:46;18.15;;;9.90;;
10705;SDS011;5404;42.656;23.336;2023-09-19T05:01:11;15.63;;;9.43;;
10705;SDS011;5404;42.656;23.336;2023-09-19T05:03:40;13.43;;;8.57;;
10705;SDS011;5404;42.656;23.336;2023-09-19T05:06:05;17.92;;;9.45;;
10705;SDS011;5404;42.656;23.336;2023-09-19T05:08:30;16.67;;;8.50;;
10705;SDS011;5404;42.656;23.336;2023-09-19T05:10:56;22.65;;;8.50;;
10705;SDS011;5404;42.656;23.336;2023-09-19T05:13:21;18.33;;;8.63;;
10705;SDS011;5404;42.656;23.336;2023-09-19T05:15:48;18.50;;;8.48;;
10705;SDS011;5404;42.656;23.336;2023-09-19T05:18:15;18.90;;;8.18;;
10705;SDS011;5404;42.656;23.336;2023-09-19T05:20:40;14.70;;;8.30;;
10705;SDS011;5404;42.656;23.336;2023-09-19T05:23:06;17.30;;;7.68;;
10705;SDS011;5404;42.656;23.336;2023-09-19T05:25:39;28.17;;;8.40;;
10705;SDS011;5404;42.656;23.336;2023-09-19T05:28:05;17.80;;;8.07;;
10705;SDS011;5404;42.656;23.336;2023-09-19T05:30:32;24.45;;;8.15;;
10705;SDS011;5404;42.656;23.336;2023-09-19T05:32:58;16.95;;;8.07;;
10705;SDS011;5404;42.656;23.336;2023-09-19T05:35:24;14.70;;;8.63;;
10705;SDS011;5404;42.656;23.336;2023-09-19T05:37:51;12.77;;;7.43;;
10705;SDS011;5404;42.656;23.336;2023-09-19T05:40:17;15.82;;;8.13;;
10705;SDS011;5404;42.656;23.336;2023-09-19T05:42:43;14.48;;;7.75;;
10705;SDS011;5404;42.656;23.336;2023-09-19T05:45:09;15.77;;;7.75;;
10705;SDS011;5404;42.656;23.336;2023-09-19T05:47:40;27.38;;;8.13;;
10705;SDS011;5404;42.656;23.336;2023-09-19T05:50:08;10.05;;;6.68;;
10705;SDS011;5404;42.656;23.336;2023-09-19T05:52:34;12.07;;;6.70;;
10705;SDS011;5404;42.656;23.336;2023-09-19T05:55:00;16.48;;;5.70;;
10705;SDS011;5404;42.656;23.336;2023-09-19T05:57:25;13.52;;;6.63;;
10705;SDS011;5404;42.656;23.336;2023-09-19T05:59:51;11.30;;;6.80;;
10705;SDS011;5404;42.656;23.336;2023-09-19T06:02:16;11.23;;;5.90;;
10705;SDS011;5404;42.656;23.336;2023-09-19T06:04:41;18.48;;;6.05;;
10705;SDS011;5404;42.656;23.336;2023-09-19T06:07:07;7.70;;;5.57;;
10705;SDS011;5404;42.656;23.336;2023-09-19T06:09:32;14.30;;;5.82;;
10705;SDS011;5404;42.656;23.336;2023-09-19T06:11:58;13.07;;;6.38;;
10705;SDS011;5404;42.656;23.336;2023-09-19T06:14:28;13.30;;;6.05;;
10705;SDS011;5404;42.656;23.336;2023-09-19T06:16:53;18.33;;;6.32;;
10705;SDS011;5404;42.656;23.336;2023-09-19T06:19:19;14.55;;;6.88;;
10705;SDS011;5404;42.656;23.336;2023-09-19T06:21:48;9.32;;;6.00;;
10705;SDS011;5404;42.656;23.336;2023-09-19T06:24:14;14.05;;;6.38;;
10705;SDS011;5404;42.656;23.336;2023-09-19T06:26:39;18.00;;;6.38;;
10705;SDS011;5404;42.656;23.336;2023-09-19T06:29:05;19.10;;;6.22;;
10705;SDS011;5404;42.656;23.336;2023-09-19T06:31:32;22.05;;;6.68;;
10705;SDS011;5404;42.656;23.336;2023-09-19T06:33:58;16.77;;;6.90;;
10705;SDS011;5404;42.656;23.336;2023-09-19T06:36:23;16.25;;;6.78;;
10705;SDS011;5404;42.656;23.336;2023-09-19T06:38:49;10.98;;;5.80;;
10705;SDS011;5404;42.656;23.336;2023-09-19T06:41:16;14.70;;;6.80;;
10705;SDS011;5404;42.656;23.336;2023-09-19T06:43:42;12.70;;;6.03;;
10705;SDS011;5404;42.656;23.336;2023-09-19T06:46:08;11.95;;;6.18;;
10705;SDS011;5404;42.656;23.336;2023-09-19T06:48:34;11.52;;;6.15;;
10705;SDS011;5404;42.656;23.336;2023-09-19T06:51:00;10.55;;;5.35;;
10705;SDS011;5404;42.656;23.336;2023-09-19T06:53:30;28.48;;;6.57;;
10705;SDS011;5404;42.656;23.336;2023-09-19T06:55:57;17.77;;;6.38;;
10705;SDS011;5404;42.656;23.336;2023-09-19T06:58:23;12.57;;;5.20;;
10705;SDS011;5404;42.656;23.336;2023-09-19T07:00:48;9.52;;;5.80;;
10705;SDS011;5404;42.656;23.336;2023-09-19T07:03:15;13.40;;;6.78;;
10705;SDS011;5404;42.656;23.336;2023-09-19T07:05:45;10.00;;;5.50;;
10705;SDS011;5404;42.656;23.336;2023-09-19T07:08:13;10.27;;;5.40;;
10705;SDS011;5404;42.656;23.336;2023-09-19T07:10:39;8.18;;;5.47;;
10705;SDS011;5404;42.656;23.336;2023-09-19T07:13:06;17.17;;;6.00;;
10705;SDS011;5404;42.656;23.336;2023-09-19T07:15:34;10.32;;;5.32;;
10705;SDS011;5404;42.656;23.336;2023-09-19T07:18:06;9.93;;;6.20;;
10705;SDS011;5404;42.656;23.336;2023-09-19T07:20:34;12.90;;;5.88;;
10705;SDS011;5404;42.656;23.336;2023-09-19T07:22:59;12.38;;;6.03;;
10705;SDS011;5404;42.656;23.336;2023-09-19T07:25:26;14.23;;;5.85;;
10705;SDS011;5404;42.656;23.336;2023-09-19T07:27:54;11.00;;;5.72;;
10705;SDS011;5404;42.656;23.336;2023-09-19T07:30:21;30.95;;;6.38;;
10705;SDS011;5404;42.656;23.336;2023-09-19T07:32:47;11.27;;;5.50;;
10705;SDS011;5404;42.656;23.336;2023-09-19T07:35:12;17.00;;;6.22;;
10705;SDS011;5404;42.656;23.336;2023-09-19T07:37:38;12.30;;;6.28;;
10705;SDS011;5404;42.656;23.336;2023-09-19T07:40:04;10.25;;;5.85;;
10705;SDS011;5404;42.656;23.336;2023-09-19T07:42:36;17.45;;;5.65;;
10705;SDS011;5404;42.656;23.336;2023-09-19T07:45:04;16.42;;;6.10;;
10705;SDS011;5404;42.656;23.336;2023-09-19T07:47:30;19.60;;;6.68;;
10705;SDS011;5404;42.656;23.336;2023-09-19T07:49:57;11.95;;;6.07;;
10705;SDS011;5404;42.656;23.336;2023-09-19T07:52:23;17.95;;;6.47;;
10705;SDS011;5404;42.656;23.336;2023-09-19T07:54:49;19.40;;;6.22;;
10705;SDS011;5404;42.656;23.336;2023-09-19T07:57:15;19.02;;;7.25;;
10705;SDS011;5404;42.656;23.336;2023-09-19T07:59:41;21.50;;;6.00;;
10705;SDS011;5404;42.656;23.336;2023-09-19T08:02:07;8.93;;;5.75;;
10705;SDS011;5404;42.656;23.336;2023-09-19T08:04:41;21.27;;;6.47;;
10705;SDS011;5404;42.656;23.336;2023-09-19T08:07:07;18.92;;;6.13;;
10705;SDS011;5404;42.656;23.336;2023-09-19T08:09:34;20.63;;;5.63;;
10705;SDS011;5404;42.656;23.336;2023-09-19T08:12:00;12.68;;;5.90;;
10705;SDS011;5404;42.656;23.336;2023-09-19T08:14:28;18.83;;;6.50;;
10705;SDS011;5404;42.656;23.336;2023-09-19T08:16:57;12.73;;;6.20;;
10705;SDS011;5404;42.656;23.336;2023-09-19T08:19:28;12.57;;;6.13;;
10705;SDS011;5404;42.656;23.336;2023-09-19T08:24:20;33.35;;;6.13;;
10705;SDS011;5404;42.656;23.336;2023-09-19T08:26:46;19.02;;;6.18;;
10705;SDS011;5404;42.656;23.336;2023-09-19T08:29:11;12.73;;;6.78;;
10705;SDS011;5404;42.656;23.336;2023-09-19T08:31:37;13.65;;;7.13;;
10705;SDS011;5404;42.656;23.336;2023-09-19T08:34:03;24.42;;;6.80;;
10705;SDS011;5404;42.656;23.336;2023-09-19T08:36:28;17.85;;;7.43;;
10705;SDS011;5404;42.656;23.336;2023-09-19T08:38:56;17.00;;;6.47;;
10705;SDS011;5404;42.656;23.336;2023-09-19T08:41:21;15.40;;;7.03;;
10705;SDS011;5404;42.656;23.336;2023-09-19T08:43:46;16.08;;;7.13;;
10705;SDS011;5404;42.656;23.336;2023-09-19T08:46:14;29.23;;;7.45;;
10705;SDS011;5404;42.656;23.336;2023-09-19T08:48:45;20.83;;;6.38;;
10705;SDS011;5404;42.656;23.336;2023-09-19T08:52:06;15.85;;;6.45;;
10705;SDS011;5404;42.656;23.336;2023-09-19T08:54:09;11.98;;;6.20;;
10705;SDS011;5404;42.656;23.336;2023-09-19T08:56:44;13.80;;;6.80;;
10705;SDS011;5404;42.656;23.336;2023-09-19T08:59:12;11.53;;;7.07;;
10705;SDS011;5404;42.656;23.336;2023-09-19T09:01:39;16.58;;;6.45;;
10705;SDS011;5404;42.656;23.336;2023-09-19T09:04:07;18.40;;;7.05;;
10705;SDS011;5404;42.656;23.336;2023-09-19T09:06:38;17.05;;;7.05;;
10705;SDS011;5404;42.656;23.336;2023-09-19T09:09:08;13.10;;;7.85;;
10705;SDS011;5404;42.656;23.336;2023-09-19T09:11:34;17.13;;;7.90;;
10705;SDS011;5404;42.656;23.336;2023-09-19T09:14:02;41.27;;;7.63;;
10705;SDS011;5404;42.656;23.336;2023-09-19T09:16:27;11.98;;;7.20;;
10705;SDS011;5404;42.656;23.336;2023-09-19T09:18:55;14.45;;;6.65;;
10705;SDS011;5404;42.656;23.336;2023-09-19T09:21:26;13.52;;;6.22;;
10705;SDS011;5404;42.656;23.336;2023-09-19T09:23:53;16.35;;;6.82;;
10705;SDS011;5404;42.656;23.336;2023-09-19T09:27:02;15.98;;;7.80;;
10705;SDS011;5404;42.656;23.336;2023-09-19T09:29:07;12.15;;;6.82;;
10705;SDS011;5404;42.656;23.336;2023-09-19T09:31:33;9.68;;;6.22;;
10705;SDS011;5404;42.656;23.336;2023-09-19T09:33:58;16.92;;;7.18;;
10705;SDS011;5404;42.656;23.336;2023-09-19T09:36:40;14.75;;;6.68;;
10705;SDS011;5404;42.656;23.336;2023-09-19T09:39:08;12.52;;;6.50;;
10705;SDS011;5404;42.656;23.336;2023-09-19T09:41:44;9.52;;;6.35;;
10705;SDS011;5404;42.656;23.336;2023-09-19T09:44:15;14.13;;;5.80;;
10705;SDS011;5404;42.656;23.336;2023-09-19T09:46:44;19.75;;;5.97;;
10705;SDS011;5404;42.656;23.336;2023-09-19T09:49:23;14.25;;;5.70;;
10705;SDS011;5404;42.656;23.336;2023-09-19T09:52:03;12.98;;;6.15;;
10705;SDS011;5404;42.656;23.336;2023-09-19T09:54:33;12.25;;;5.72;;
10705;SDS011;5404;42.656;23.336;2023-09-19T09:57:11;8.60;;;5.68;;
10705;SDS011;5404;42.656;23.336;2023-09-19T09:59:46;16.17;;;5.93;;
10705;SDS011;5404;42.656;23.336;2023-09-19T10:02:15;16.10;;;5.32;;
10705;SDS011;5404;42.656;23.336;2023-09-19T10:04:49;11.10;;;5.45;;
10705;SDS011;5404;42.656;23.336;2023-09-19T10:07:26;13.90;;;5.55;;
10705;SDS011;5404;42.656;23.336;2023-09-19T10:10:03;11.90;;;6.00;;
10705;SDS011;5404;42.656;23.336;2023-09-19T10:12:44;9.82;;;5.82;;
10705;SDS011;5404;42.656;23.336;2023-09-19T10:15:13;7.60;;;5.65;;
10705;SDS011;5404;42.656;23.336;2023-09-19T10:17:44;18.20;;;5.78;;
10705;SDS011;5404;42.656;23.336;2023-09-19T10:20:14;16.38;;;5.95;;
10705;SDS011;5404;42.656;23.336;2023-09-19T10:22:59;8.38;;;6.45;;
10705;SDS011;5404;42.656;23.336;2023-09-19T10:25:25;15.38;;;6.55;;
10705;SDS011;5404;42.656;23.336;2023-09-19T10:27:54;8.35;;;5.13;;
10705;SDS011;5404;42.656;23.336;2023-09-19T10:30:22;17.98;;;5.88;;
10705;SDS011;5404;42.656;23.336;2023-09-19T10:32:49;11.93;;;5.45;;
10705;SDS011;5404;42.656;23.336;2023-09-19T10:35:23;11.90;;;5.28;;
10705;SDS011;5404;42.656;23.336;2023-09-19T10:37:49;11.70;;;6.03;;
10705;SDS011;5404;42.656;23.336;2023-09-19T10:40:16;11.15;;;5.80;;
10705;SDS011;5404;42.656;23.336;2023-09-19T10:42:46;8.98;;;5.47;;
10705;SDS011;5404;42.656;23.336;2023-09-19T10:47:43;12.35;;;5.18;;
10705;SDS011;5404;42.656;23.336;2023-09-19T10:50:09;9.35;;;5.15;;
10705;SDS011;5404;42.656;23.336;2023-09-19T10:52:42;11.82;;;5.78;;
10705;SDS011;5404;42.656;23.336;2023-09-19T10:55:09;10.43;;;5.78;;
10705;SDS011;5404;42.656;23.336;2023-09-19T10:57:44;8.20;;;4.70;;
10705;SDS011;5404;42.656;23.336;2023-09-19T11:00:11;13.10;;;5.00;;
10705;SDS011;5404;42.656;23.336;2023-09-19T11:05:40;11.38;;;5.60;;
10705;SDS011;5404;42.656;23.336;2023-09-19T11:08:09;10.30;;;6.13;;
10705;SDS011;5404;42.656;23.336;2023-09-19T11:10:50;10.02;;;6.15;;
10705;SDS011;5404;42.656;23.336;2023-09-19T11:13:26;27.30;;;6.68;;
10705;SDS011;5404;42.656;23.336;2023-09-19T11:21:49;16.02;;;6.10;;
10705;SDS011;5404;42.656;23.336;2023-09-19T11:24:41;10.02;;;6.00;;
10705;SDS011;5404;42.656;23.336;2023-09-19T11:26:57;13.75;;;6.13;;
10705;SDS011;5404;42.656;23.336;2023-09-19T11:29:35;12.55;;;5.72;;
10705;SDS011;5404;42.656;23.336;2023-09-19T11:32:01;9.43;;;5.00;;
10705;SDS011;5404;42.656;23.336;2023-09-19T11:37:01;11.30;;;5.55;;
10705;SDS011;5404;42.656;23.336;2023-09-19T11:42:45;17.52;;;6.05;;
10705;SDS011;5404;42.656;23.336;2023-09-19T11:48:23;17.35;;;5.80;;
10705;SDS011;5404;42.656;23.336;2023-09-19T11:50:52;8.40;;;5.22;;
10705;SDS011;5404;42.656;23.336;2023-09-19T11:53:18;8.43;;;4.78;;
10705;SDS011;5404;42.656;23.336;2023-09-19T11:55:45;11.25;;;5.68;;
10705;SDS011;5404;42.656;23.336;2023-09-19T11:58:11;16.80;;;5.68;;
10705;SDS011;5404;42.656;23.336;2023-09-19T12:00:39;11.57;;;5.60;;
10705;SDS011;5404;42.656;23.336;2023-09-19T12:03:09;11.40;;;5.50;;
10705;SDS011;5404;42.656;23.336;2023-09-19T12:05:36;10.40;;;5.63;;
10705;SDS011;5404;42.656;23.336;2023-09-19T12:08:16;11.80;;;5.07;;
10705;SDS011;5404;42.656;23.336;2023-09-19T12:13:17;10.65;;;5.47;;
10705;SDS011;5404;42.656;23.336;2023-09-19T12:15:46;14.15;;;5.90;;
10705;SDS011;5404;42.656;23.336;2023-09-19T12:18:30;11.27;;;5.68;;
10705;SDS011;5404;42.656;23.336;2023-09-19T12:20:55;15.18;;;5.97;;
10705;SDS011;5404;42.656;23.336;2023-09-19T12:23:22;13.32;;;5.95;;
10705;SDS011;5404;42.656;23.336;2023-09-19T12:25:48;11.27;;;5.70;;
10705;SDS011;5404;42.656;23.336;2023-09-19T12:28:17;16.73;;;6.50;;
10705;SDS011;5404;42.656;23.336;2023-09-19T12:30:43;17.00;;;6.45;;
10705;SDS011;5404;42.656;23.336;2023-09-19T12:33:16;11.40;;;5.20;;
10705;SDS011;5404;42.656;23.336;2023-09-19T12:35:44;20.17;;;6.00;;
10705;SDS011;5404;42.656;23.336;2023-09-19T12:38:10;18.20;;;6.05;;
10705;SDS011;5404;42.656;23.336;2023-09-19T12:40:37;18.88;;;5.43;;
10705;SDS011;5404;42.656;23.336;2023-09-19T12:43:03;15.93;;;5.80;;
10705;SDS011;5404;42.656;23.336;2023-09-19T12:45:30;10.57;;;5.40;;
10705;SDS011;5404;42.656;23.336;2023-09-19T12:51:06;12.77;;;5.18;;
10705;SDS011;5404;42.656;23.336;2023-09-19T12:56:07;6.65;;;5.15;;
10705;SDS011;5404;42.656;23.336;2023-09-19T12:58:55;13.45;;;5.28;;
10705;SDS011;5404;42.656;23.336;2023-09-19T13:01:25;7.65;;;5.18;;
10705;SDS011;5404;42.656;23.336;2023-09-19T13:09:10;9.65;;;5.45;;
10705;SDS011;5404;42.656;23.336;2023-09-19T13:11:37;13.30;;;5.07;;
10705;SDS011;5404;42.656;23.336;2023-09-19T13:14:24;15.55;;;5.57;;
10705;SDS011;5404;42.656;23.336;2023-09-19T13:19:39;6.07;;;4.72;;
10705;SDS011;5404;42.656;23.336;2023-09-19T13:25:01;10.80;;;5.18;;
10705;SDS011;5404;42.656;23.336;2023-09-19T13:27:29;12.18;;;5.43;;
10705;SDS011;5404;42.656;23.336;2023-09-19T13:29:54;10.40;;;5.00;;
10705;SDS011;5404;42.656;23.336;2023-09-19T13:32:19;13.57;;;5.10;;
10705;SDS011;5404;42.656;23.336;2023-09-19T13:34:45;13.43;;;5.40;;
10705;SDS011;5404;42.656;23.336;2023-09-19T13:37:10;11.27;;;4.32;;
10705;SDS011;5404;42.656;23.336;2023-09-19T13:39:38;11.75;;;4.45;;
10705;SDS011;5404;42.656;23.336;2023-09-19T13:42:07;14.48;;;5.28;;
10705;SDS011;5404;42.656;23.336;2023-09-19T13:44:37;14.30;;;4.68;;
10705;SDS011;5404;42.656;23.336;2023-09-19T13:47:03;7.68;;;5.32;;
10705;SDS011;5404;42.656;23.336;2023-09-19T13:49:34;14.88;;;5.47;;
10705;SDS011;5404;42.656;23.336;2023-09-19T13:52:01;9.25;;;5.25;;
10705;SDS011;5404;42.656;23.336;2023-09-19T13:54:30;10.90;;;4.80;;
10705;SDS011;5404;42.656;23.336;2023-09-19T13:56:56;7.93;;;5.05;;
10705;SDS011;5404;42.656;23.336;2023-09-19T13:59:21;13.00;;;5.90;;
10705;SDS011;5404;42.656;23.336;2023-09-19T14:01:49;10.93;;;5.47;;
10705;SDS011;5404;42.656;23.336;2023-09-19T14:04:15;14.65;;;6.15;;
10705;SDS011;5404;42.656;23.336;2023-09-19T14:06:42;8.98;;;5.03;;
10705;SDS011;5404;42.656;23.336;2023-09-19T14:09:08;8.98;;;5.35;;
10705;SDS011;5404;42.656;23.336;2023-09-19T14:11:35;20.67;;;5.55;;
10705;SDS011;5404;42.656;23.336;2023-09-19T14:14:01;12.25;;;5.72;;
10705;SDS011;5404;42.656;23.336;2023-09-19T14:16:26;14.57;;;5.97;;
10705;SDS011;5404;42.656;23.336;2023-09-19T14:18:55;18.73;;;10.60;;
10705;SDS011;5404;42.656;23.336;2023-09-19T14:21:20;14.25;;;9.30;;
10705;SDS011;5404;42.656;23.336;2023-09-19T14:23:46;27.05;;;10.45;;
10705;SDS011;5404;42.656;23.336;2023-09-19T14:26:11;17.02;;;8.60;;
10705;SDS011;5404;42.656;23.336;2023-09-19T14:28:37;14.38;;;8.63;;
10705;SDS011;5404;42.656;23.336;2023-09-19T14:31:10;15.07;;;5.57;;
10705;SDS011;5404;42.656;23.336;2023-09-19T14:33:36;11.13;;;5.70;;
10705;SDS011;5404;42.656;23.336;2023-09-19T14:36:07;10.35;;;5.57;;
10705;SDS011;5404;42.656;23.336;2023-09-19T14:38:35;12.88;;;5.55;;
10705;SDS011;5404;42.656;23.336;2023-09-19T14:41:01;14.15;;;5.80;;
10705;SDS011;5404;42.656;23.336;2023-09-19T14:43:28;16.30;;;8.57;;
10705;SDS011;5404;42.656;23.336;2023-09-19T14:46:04;11.00;;;5.95;;
10705;SDS011;5404;42.656;23.336;2023-09-19T14:48:32;8.98;;;6.20;;
10705;SDS011;5404;42.656;23.336;2023-09-19T14:51:05;8.48;;;5.35;;
10705;SDS011;5404;42.656;23.336;2023-09-19T14:53:37;24.80;;;7.33;;
10705;SDS011;5404;42.656;23.336;2023-09-19T14:56:03;9.80;;;5.78;;
10705;SDS011;5404;42.656;23.336;2023-09-19T14:58:32;10.25;;;5.93;;
10705;SDS011;5404;42.656;23.336;2023-09-19T15:03:37;14.70;;;5.75;;
10705;SDS011;5404;42.656;23.336;2023-09-19T15:06:11;11.85;;;5.93;;
10705;SDS011;5404;42.656;23.336;2023-09-19T15:08:42;33.85;;;7.28;;
10705;SDS011;5404;42.656;23.336;2023-09-19T15:11:15;14.85;;;6.93;;
10705;SDS011;5404;42.656;23.336;2023-09-19T15:13:42;12.82;;;7.40;;
10705;SDS011;5404;42.656;23.336;2023-09-19T15:16:09;15.52;;;6.82;;
10705;SDS011;5404;42.656;23.336;2023-09-19T15:18:36;13.90;;;7.15;;
10705;SDS011;5404;42.656;23.336;2023-09-19T15:21:03;15.48;;;7.28;;
10705;SDS011;5404;42.656;23.336;2023-09-19T15:23:30;14.10;;;6.03;;
10705;SDS011;5404;42.656;23.336;2023-09-19T15:25:57;13.20;;;6.90;;
10705;SDS011;5404;42.656;23.336;2023-09-19T15:28:23;12.75;;;7.07;;
10705;SDS011;5404;42.656;23.336;2023-09-19T15:30:56;18.08;;;7.30;;
10705;SDS011;5404;42.656;23.336;2023-09-19T15:33:29;15.65;;;7.32;;
10705;SDS011;5404;42.656;23.336;2023-09-19T15:36:05;22.40;;;10.07;;
10705;SDS011;5404;42.656;23.336;2023-09-19T15:41:32;16.85;;;6.55;;
10705;SDS011;5404;42.656;23.336;2023-09-19T15:43:59;13.77;;;7.53;;
10705;SDS011;5404;42.656;23.336;2023-09-19T15:46:26;19.80;;;7.30;;
10705;SDS011;5404;42.656;23.336;2023-09-19T15:48:53;15.85;;;7.85;;
10705;SDS011;5404;42.656;23.336;2023-09-19T15:51:18;32.83;;;7.53;;
10705;SDS011;5404;42.656;23.336;2023-09-19T15:53:45;18.02;;;7.57;;